Time;durP1;ratioP1;P1;durP2;ratioP2;P2;SDS_P1;SDS_P2;PMS_P1;PMS_P2;Temp;Humidity;BMP_temperature;BMP_pressure;BME280_temperature;BME280_humidity;BME280_pressure;Samples;Min_cycle;Max_cycle;Signal;HPM_P1;HPM_P2
2020/12/23 00:01:10;970529.00;3.24;1680.34;0.00;0.00;0.62;;;;;25.80;38.10;;;;;;2239941;61;7953;-65
2020/12/23 00:03:40;853075.00;2.84;1473.85;0.00;0.00;0.62;;;;;25.80;38.00;;;;;;2237285;61;8546;-66
2020/12/23 00:06:06;442938.00;1.48;763.64;4162.00;0.01;7.83;;;;;25.80;38.00;;;;;;2239852;61;8284;-66
2020/12/23 00:08:33;1316714.00;4.39;2302.73;0.00;0.00;0.62;;;;;25.80;37.90;;;;;;2240186;61;8472;-66
2020/12/23 00:11:00;1148342.00;3.83;1997.10;141876.00;0.47;245.80;;;;;25.90;38.00;;;;;;2242499;61;7913;-67
2020/12/23 00:13:27;678303.00;2.26;1169.63;0.00;0.00;0.62;;;;;25.80;38.00;;;;;;2244331;61;7159;-67
2020/12/23 00:15:53;937150.00;3.12;1621.46;9841.00;0.03;17.67;;;;;25.80;38.00;;;;;;2233163;61;5513;-67
2020/12/23 00:18:19;1073354.00;3.58;1862.84;15597.00;0.05;27.64;;;;;25.90;37.80;;;;;;2240871;61;7157;-67
2020/12/23 00:20:46;746852.00;2.49;1288.58;17470.00;0.06;30.89;;;;;25.90;37.80;;;;;;2237375;61;5602;-67
2020/12/23 00:23:12;435086.00;1.45;750.13;0.00;0.00;0.62;;;;;25.80;37.90;;;;;;2239685;61;7193;-67
2020/12/23 00:25:39;704835.00;2.35;1215.62;15786.00;0.05;27.97;;;;;25.80;37.80;;;;;;2242330;61;6982;-67
2020/12/23 00:28:05;489712.00;1.63;844.11;0.00;0.00;0.62;;;;;25.90;37.80;;;;;;2240052;61;5872;-67
2020/12/23 00:30:35;831577.00;2.77;1436.25;30957.00;0.10;54.24;;;;;25.90;37.80;;;;;;2238686;61;5930;-66
2020/12/23 00:33:23;611259.00;2.04;1053.66;0.00;0.00;0.62;;;;;25.80;37.80;;;;;;2240704;61;6337;-66
2020/12/23 00:35:49;632568.00;2.11;1090.49;388.00;0.00;1.29;;;;;25.80;37.90;;;;;;2238064;61;6034;-66
2020/12/23 00:38:16;531030.00;1.77;915.27;0.00;0.00;0.62;;;;;25.90;37.90;;;;;;2237134;61;5999;-67
2020/12/23 00:40:42;509065.00;1.70;877.43;0.00;0.00;0.62;;;;;25.90;37.90;;;;;;2237718;61;6910;-67
2020/12/23 00:43:08;843251.00;2.81;1456.66;17859.00;0.06;31.56;;;;;25.80;37.90;;;;;;2243001;61;7180;-67
2020/12/23 00:45:36;1237990.00;4.13;2159.06;91686.00;0.31;159.22;;;;;25.80;37.90;;;;;;2240896;61;7629;-67
2020/12/23 00:48:04;1096185.00;3.65;1903.60;39323.00;0.13;68.72;;;;;25.80;37.90;;;;;;2240938;61;7400;-66
2020/12/23 00:50:33;393813.00;1.31;679.17;0.00;0.00;0.62;;;;;25.80;37.80;;;;;;2237928;61;7590;-67
2020/12/23 00:53:00;1144428.00;3.81;1990.06;113.00;0.00;0.82;;;;;25.90;37.80;;;;;;2240028;61;7166;-67
2020/12/23 00:55:26;570679.00;1.90;983.62;0.00;0.00;0.62;;;;;25.80;37.80;;;;;;2241158;61;7384;-66
2020/12/23 00:57:53;1034204.00;3.45;1793.15;36658.00;0.12;64.11;;;;;25.90;37.80;;;;;;2238935;61;7496;-67
2020/12/23 01:00:19;881027.00;2.94;1522.82;0.00;0.00;0.62;;;;;25.80;37.90;;;;;;2236157;61;6851;-67
2020/12/23 01:02:50;683835.00;2.28;1179.22;8387.00;0.03;15.15;;;;;25.80;37.80;;;;;;2240277;61;5943;-67
2020/12/23 01:05:16;492533.00;1.64;848.97;0.00;0.00;0.62;;;;;25.80;37.90;;;;;;2234546;61;7076;-67
2020/12/23 01:07:42;856777.00;2.86;1480.33;17365.00;0.06;30.71;;;;;25.80;37.90;;;;;;2239310;61;7480;-67
2020/12/23 01:10:12;848778.00;2.83;1466.33;3786.00;0.01;7.18;;;;;25.80;38.00;;;;;;2240818;61;7163;-67
2020/12/23 01:12:38;689116.00;2.30;1188.37;0.00;0.00;0.62;;;;;25.80;37.80;;;;;;2236593;61;7224;-66
2020/12/23 01:15:05;511996.00;1.71;882.48;0.00;0.00;0.62;;;;;25.80;37.90;;;;;;2241822;61;7633;-67
2020/12/23 01:17:36;695498.00;2.32;1199.43;0.00;0.00;0.62;;;;;25.80;37.80;;;;;;2238803;61;5639;-66
2020/12/23 01:20:04;993823.00;3.31;1721.53;0.00;0.00;0.62;;;;;25.80;37.80;;;;;;2241582;61;8274;-67
2020/12/23 01:22:30;889188.00;2.96;1537.14;0.00;0.00;0.62;;;;;25.90;37.80;;;;;;2239108;61;7444;-67
2020/12/23 01:24:57;827193.00;2.76;1428.59;0.00;0.00;0.62;;;;;25.80;37.80;;;;;;2240170;61;7288;-67
2020/12/23 01:27:23;562174.00;1.87;968.95;0.00;0.00;0.62;;;;;25.80;37.90;;;;;;2239523;61;8692;-67
2020/12/23 01:29:49;695001.00;2.32;1198.57;9043.00;0.03;16.29;;;;;25.80;37.90;;;;;;2242022;61;5668;-67
2020/12/23 01:32:19;818800.00;2.73;1413.93;0.00;0.00;0.62;;;;;25.80;37.80;;;;;;2239929;61;7132;-67
2020/12/23 01:34:45;1051743.00;3.51;1824.33;20554.00;0.07;36.23;;;;;25.80;37.80;;;;;;2243429;61;7402;-67
2020/12/23 01:37:11;542305.00;1.81;934.70;0.00;0.00;0.62;;;;;25.80;37.80;;;;;;2243776;61;7329;-67
2020/12/23 01:39:38;552682.00;1.84;952.58;0.00;0.00;0.62;;;;;25.80;37.80;;;;;;2235951;61;7040;-67
2020/12/23 01:42:08;606958.00;2.02;1046.24;0.00;0.00;0.62;;;;;25.80;37.70;;;;;;2236270;61;7431;-67
2020/12/23 01:44:38;724590.00;2.42;1249.91;0.00;0.00;0.62;;;;;25.90;37.70;;;;;;2240295;61;8173;-66
2020/12/23 01:47:08;451316.00;1.50;778.05;15642.00;0.05;27.72;;;;;25.80;37.70;;;;;;2237109;61;7162;-67
2020/12/23 01:49:35;542258.00;1.81;934.61;74.00;0.00;0.75;;;;;25.90;37.70;;;;;;2239590;61;8371;-67
2020/12/23 01:52:05;592053.00;1.97;1020.50;12774.00;0.04;22.75;;;;;25.80;37.80;;;;;;2241347;61;7560;-67
2020/12/23 01:54:32;582092.00;1.94;1003.31;0.00;0.00;0.62;;;;;25.90;37.70;;;;;;2237393;61;5824;-67
2020/12/23 01:56:58;804103.00;2.68;1388.28;593.00;0.00;1.65;;;;;25.80;37.90;;;;;;2240598;61;7045;-66
2020/12/23 01:59:25;117074672.00;390.25;65000120.00;11061.00;0.04;19.79;;;;;25.80;37.80;;;;;;2240263;61;7335;-66
2020/12/23 02:02:12;582510.00;1.94;1004.03;0.00;0.00;0.62;;;;;25.80;37.80;;;;;;2240275;61;7234;-67
2020/12/23 02:04:38;1114358.00;3.71;1936.12;14103.00;0.05;25.06;;;;;25.80;38.40;;;;;;2238598;61;6996;-67
2020/12/23 02:07:04;829993.00;2.77;1433.48;0.00;0.00;0.62;;;;;25.80;37.70;;;;;;2232234;61;8963;-66
2020/12/23 02:09:32;859813.00;2.87;1485.65;0.00;0.00;0.62;;;;;25.80;37.70;;;;;;2241635;61;11293;-67
2020/12/23 02:12:00;781612.00;2.61;1349.07;33683.00;0.11;58.96;;;;;25.80;37.70;;;;;;2243877;61;7248;-67
2020/12/23 02:14:26;465019.00;1.55;801.62;0.00;0.00;0.62;;;;;25.80;37.70;;;;;;2239853;61;7050;-67
2020/12/23 02:16:52;804807.00;2.68;1389.51;0.00;0.00;0.62;;;;;25.90;37.60;;;;;;2242017;61;6896;-67
2020/12/23 02:19:19;1127734.00;3.76;1960.09;125.00;0.00;0.84;;;;;25.80;37.60;;;;;;2238281;61;5724;-67
2020/12/23 02:21:46;117185432.00;390.62;65184948.00;0.00;0.00;0.62;;;;;25.80;37.80;;;;;;2240188;61;7042;-67
2020/12/23 02:24:12;441570.00;1.47;761.28;0.00;0.00;0.62;;;;;25.80;37.70;;;;;;2236169;61;5616;-67
2020/12/23 02:26:38;445283.00;1.48;767.67;0.00;0.00;0.62;;;;;25.80;37.70;;;;;;2241166;61;5570;-67
2020/12/23 02:29:05;611512.00;2.04;1054.10;6386.00;0.02;11.69;;;;;25.80;37.70;;;;;;2236706;61;7394;-66
2020/12/23 02:31:31;571905.00;1.91;985.73;0.00;0.00;0.62;;;;;25.80;37.70;;;;;;2237257;61;7212;-67
2020/12/23 02:33:58;378605.00;1.26;653.03;0.00;0.00;0.62;;;;;25.80;37.60;;;;;;2241350;61;6801;-67
2020/12/23 02:36:24;473917.00;1.58;816.93;0.00;0.00;0.62;;;;;25.80;37.70;;;;;;2241010;61;5615;-67
2020/12/23 02:38:51;844403.00;2.81;1458.68;0.00;0.00;0.62;;;;;25.80;37.70;;;;;;2235454;61;5676;-66
2020/12/23 02:41:17;382813.00;1.28;660.26;0.00;0.00;0.62;;;;;25.80;37.70;;;;;;2236485;61;4691;-67
2020/12/23 02:43:43;464046.00;1.55;799.95;0.00;0.00;0.62;;;;;25.80;37.60;;;;;;2238149;61;3986;-67
2020/12/23 02:46:10;471474.00;1.57;812.73;0.00;0.00;0.62;;;;;25.80;37.60;;;;;;2240506;61;4095;-67
2020/12/23 02:48:36;512303.00;1.71;883.01;0.00;0.00;0.62;;;;;25.80;37.60;;;;;;2240238;61;5778;-67
2020/12/23 02:51:02;630503.00;2.10;1086.92;0.00;0.00;0.62;;;;;25.80;37.60;;;;;;2237930;61;5504;-66
2020/12/23 02:53:29;662557.00;2.21;1142.37;0.00;0.00;0.62;;;;;26.00;37.40;;;;;;2243291;61;3999;-66
2020/12/23 02:55:55;401100.00;1.34;691.70;0.00;0.00;0.62;;;;;25.90;37.40;;;;;;2236112;61;5638;-67
2020/12/23 02:58:22;659830.00;2.20;1137.65;31134.00;0.10;54.55;;;;;25.80;37.40;;;;;;2239971;61;7116;-67
2020/12/23 03:00:48;686928.00;2.29;1184.58;0.00;0.00;0.62;;;;;25.90;37.50;;;;;;2238930;61;6959;-67
2020/12/23 03:03:15;874844.00;2.92;1511.98;0.00;0.00;0.62;;;;;25.90;37.50;;;;;;2239313;61;7143;-67
2020/12/23 03:05:42;957483.00;3.19;1657.31;33772.00;0.11;59.11;;;;;25.90;37.40;;;;;;2225768;61;9211;-67
2020/12/23 03:08:08;945042.00;3.15;1635.37;0.00;0.00;0.62;;;;;26.00;37.30;;;;;;2234101;61;8491;-67
2020/12/23 03:10:35;589722.00;1.97;1016.48;0.00;0.00;0.62;;;;;25.90;37.30;;;;;;2237394;61;7423;-67
2020/12/23 03:13:01;639862.00;2.13;1103.10;0.00;0.00;0.62;;;;;25.90;37.40;;;;;;2241680;61;7532;-67
2020/12/23 03:15:35;780406.00;2.60;1346.97;0.00;0.00;0.62;;;;;25.80;37.70;;;;;;2236666;61;7487;-67
2020/12/23 03:18:01;954526.00;3.18;1652.09;4366.00;0.01;8.19;;;;;25.70;37.90;;;;;;2237684;61;7501;-67
2020/12/23 03:20:27;631623.00;2.11;1088.85;0.00;0.00;0.62;;;;;25.40;38.10;;;;;;2238895;61;2479;-67
2020/12/23 03:22:53;465854.00;1.55;803.06;0.00;0.00;0.62;;;;;25.40;38.40;;;;;;2239924;61;7394;-67
2020/12/23 03:25:20;836610.00;2.79;1445.05;5938.00;0.02;10.91;;;;;25.30;38.50;;;;;;2242217;61;2683;-67
2020/12/23 03:27:54;553170.00;1.84;953.42;0.00;0.00;0.62;;;;;25.20;38.80;;;;;;2237110;61;5990;-67
2020/12/23 03:30:24;661746.00;2.21;1140.96;0.00;0.00;0.62;;;;;25.00;39.00;;;;;;2239357;61;7959;-67
2020/12/23 03:32:51;989114.00;3.30;1713.20;255.00;0.00;1.06;;;;;24.90;39.30;;;;;;2232864;61;7331;-67
2020/12/23 03:35:18;1127335.00;3.76;1959.38;19631.00;0.07;34.63;;;;;24.80;39.60;;;;;;2238973;61;4089;-67
2020/12/23 03:37:44;827792.00;2.76;1429.64;0.00;0.00;0.62;;;;;24.60;39.80;;;;;;2241751;61;7436;-67
2020/12/23 03:40:10;776552.00;2.59;1340.26;0.00;0.00;0.62;;;;;24.50;40.10;;;;;;2240934;61;7261;-67
2020/12/23 03:42:37;948557.00;3.16;1641.57;0.00;0.00;0.62;;;;;24.40;40.40;;;;;;2245277;61;7343;-67
2020/12/23 03:45:03;606673.00;2.02;1045.74;0.00;0.00;0.62;;;;;24.30;40.60;;;;;;2236889;61;7030;-67
2020/12/23 03:47:30;882681.00;2.94;1525.72;0.00;0.00;0.62;;;;;24.20;40.80;;;;;;2241413;61;4117;-67
2020/12/23 03:49:56;725548.00;2.42;1251.57;20329.00;0.07;35.84;;;;;24.10;40.90;;;;;;2239836;61;7184;-67
2020/12/23 03:52:26;514261.00;1.71;886.38;0.00;0.00;0.62;;;;;24.00;41.10;;;;;;2238396;61;7172;-67
2020/12/23 03:54:53;1426711.00;4.76;2505.96;0.00;0.00;0.62;;;;;24.00;41.30;;;;;;2242290;61;7420;-67
2020/12/23 03:57:22;1085666.00;3.62;1884.81;0.00;0.00;0.62;;;;;23.90;41.50;;;;;;2237593;61;7199;-67
2020/12/23 03:59:49;694743.00;2.32;1198.12;7934.00;0.03;14.37;;;;;23.80;41.60;;;;;;2238643;61;7407;-67
2020/12/23 04:02:16;516333.00;1.72;889.95;21150.00;0.07;37.26;;;;;23.70;41.80;;;;;;2238639;61;7465;-67
2020/12/23 04:04:42;857055.00;2.86;1480.82;23343.00;0.08;41.06;;;;;23.70;42.00;;;;;;2234095;61;7394;-67
2020/12/23 04:07:08;1116305.00;3.72;1939.61;6512.00;0.02;11.91;;;;;23.60;42.00;;;;;;2239262;61;7238;-67
2020/12/23 04:09:35;994157.00;3.31;1722.13;0.00;0.00;0.62;;;;;23.60;42.20;;;;;;2240948;61;7423;-67
2020/12/23 04:12:01;794091.00;2.65;1370.82;0.00;0.00;0.62;;;;;23.50;42.20;;;;;;2239964;61;5332;-67
2020/12/23 04:14:27;676653.00;2.26;1166.78;0.00;0.00;0.62;;;;;23.50;42.50;;;;;;2240152;61;7330;-67
2020/12/23 04:16:57;753750.00;2.51;1300.58;21067.00;0.07;37.12;;;;;23.40;42.40;;;;;;2240193;61;5280;-67
2020/12/23 04:19:27;1132620.00;3.78;1968.86;0.00;0.00;0.62;;;;;23.40;42.50;;;;;;2241206;61;5521;-67
2020/12/23 04:21:54;1103399.00;3.68;1916.50;0.00;0.00;0.62;;;;;23.30;42.50;;;;;;2244275;61;5991;-67
2020/12/23 04:24:20;979009.00;3.26;1695.33;4335.00;0.01;8.13;;;;;23.30;42.70;;;;;;2238168;61;5631;-67
2020/12/23 04:26:46;1100696.00;3.67;1911.67;0.00;0.00;0.62;;;;;23.30;42.70;;;;;;2241563;61;7026;-67
2020/12/23 04:29:16;882726.00;2.94;1525.80;1338.00;0.00;2.94;;;;;23.20;42.80;;;;;;2238752;61;5547;-67
2020/12/23 04:31:42;1386617.00;4.62;2431.53;31838.00;0.11;55.76;;;;;23.20;42.90;;;;;;2237926;61;7137;-67
2020/12/23 04:34:08;873522.00;2.91;1509.66;0.00;0.00;0.62;;;;;23.20;43.00;;;;;;2237289;61;6969;-67
2020/12/23 04:36:35;1147103.00;3.82;1994.87;5640.00;0.02;10.39;;;;;23.20;43.00;;;;;;2239656;61;7006;-67
2020/12/23 04:39:01;904297.00;3.01;1563.67;75.00;0.00;0.75;;;;;23.10;43.00;;;;;;2237266;61;7209;-67
2020/12/23 04:41:28;1041367.00;3.47;1805.88;0.00;0.00;0.62;;;;;23.10;43.20;;;;;;2241084;61;5668;-67
2020/12/23 04:43:55;1025492.00;3.42;1777.67;0.00;0.00;0.62;;;;;23.10;43.10;;;;;;2244047;61;5599;-67
2020/12/23 04:46:30;873339.00;2.91;1509.34;0.00;0.00;0.62;;;;;23.10;43.20;;;;;;2240786;61;7640;-67
2020/12/23 04:48:58;1312860.00;4.38;2295.66;5842.00;0.02;10.74;;;;;23.10;43.30;;;;;;2242385;61;3833;-67
2020/12/23 04:51:33;1490392.00;4.97;2625.05;41354.00;0.14;72.23;;;;;23.00;43.20;;;;;;2240587;61;5267;-67
2020/12/23 04:54:01;1155089.00;3.85;2009.23;0.00;0.00;0.62;;;;;23.00;43.30;;;;;;2243447;61;6978;-67
2020/12/23 04:56:34;920380.00;3.07;1591.94;0.00;0.00;0.62;;;;;23.00;43.40;;;;;;2241273;61;7140;-67
2020/12/23 04:59:02;1100647.00;3.67;1911.58;0.00;0.00;0.62;;;;;23.00;43.30;;;;;;2241434;61;7641;-67
2020/12/23 05:01:29;748830.00;2.50;1292.02;9561.00;0.03;17.19;;;;;23.00;43.30;;;;;;2238856;61;7200;-67
2020/12/23 05:03:56;739739.00;2.47;1276.22;0.00;0.00;0.62;;;;;23.00;43.30;;;;;;2233860;61;5736;-67
2020/12/23 05:06:25;775699.00;2.59;1338.78;9420.00;0.03;16.94;;;;;23.00;43.40;;;;;;2241556;61;7185;-67
2020/12/23 05:08:54;568443.00;1.89;979.76;8253.00;0.03;14.92;;;;;22.90;43.40;;;;;;2242601;61;7348;-67
2020/12/23 05:11:21;979819.00;3.27;1696.76;0.00;0.00;0.62;;;;;22.90;43.40;;;;;;2240059;61;7292;-67
2020/12/23 05:13:47;846256.00;2.82;1461.92;0.00;0.00;0.62;;;;;22.90;43.40;;;;;;2236436;61;7097;-67
2020/12/23 05:16:22;1523213.00;5.08;2686.88;9224.00;0.03;16.60;;;;;22.90;43.40;;;;;;2240970;61;5409;-67
2020/12/23 05:18:57;1108251.00;3.69;1925.19;17455.00;0.06;30.86;;;;;22.90;43.50;;;;;;2239948;61;7860;-67
2020/12/23 05:21:24;1262068.00;4.21;2202.85;0.00;0.00;0.62;;;;;22.90;43.50;;;;;;2238492;61;8262;-67
2020/12/23 05:23:58;1449199.00;4.83;2547.89;36411.00;0.12;63.68;;;;;22.90;43.50;;;;;;2239264;61;6656;-67
2020/12/23 05:26:25;1297541.00;4.33;2267.61;21024.00;0.07;37.04;;;;;22.90;43.60;;;;;;2237911;61;7426;-67
2020/12/23 05:28:53;1084818.00;3.62;1883.29;9374.00;0.03;16.86;;;;;22.90;43.50;;;;;;2238047;61;7534;-67
2020/12/23 05:31:21;919306.00;3.06;1590.05;0.00;0.00;0.62;;;;;22.90;43.60;;;;;;2240449;61;7114;-67
2020/12/23 05:33:49;965856.00;3.22;1672.09;0.00;0.00;0.62;;;;;22.90;43.60;;;;;;2236040;61;7269;-67
2020/12/23 05:36:35;987142.00;3.29;1709.71;0.00;0.00;0.62;;;;;22.90;44.20;;;;;;2243425;61;7218;-67
2020/12/23 05:39:09;1025867.00;3.42;1778.34;11209.00;0.04;20.04;;;;;22.90;43.60;;;;;;2239823;61;7207;-67
2020/12/23 05:41:38;121930208.00;406.43;73435720.00;17283.00;0.06;30.56;;;;;22.80;43.60;;;;;;2233353;61;5344;-67
2020/12/23 05:44:34;994415.00;3.31;1722.58;7795.00;0.03;14.13;;;;;22.80;43.60;;;;;;2241200;61;4011;-67
2020/12/23 05:47:05;684800.00;2.28;1180.89;0.00;0.00;0.62;;;;;22.80;43.60;;;;;;2241017;61;5639;-67
2020/12/23 05:49:38;1233467.00;4.11;2150.85;0.00;0.00;0.62;;;;;22.80;43.60;;;;;;2242338;61;7355;-67
2020/12/23 05:52:04;521052.00;1.74;898.08;0.00;0.00;0.62;;;;;22.80;43.60;;;;;;2237339;61;7323;-67
2020/12/23 05:54:35;120586976.00;401.96;71033192.00;0.00;0.00;0.62;;;;;22.80;43.60;;;;;;2238224;61;7180;-67
2020/12/23 05:57:03;547286.00;1.82;943.28;0.00;0.00;0.62;;;;;22.80;43.70;;;;;;2237086;61;7450;-67
2020/12/23 05:59:29;938834.00;3.13;1624.43;11201.00;0.04;20.03;;;;;22.80;43.70;;;;;;2241629;61;5100;-67
2020/12/23 06:02:03;453765.00;1.51;782.26;0.00;0.00;0.62;;;;;22.80;43.70;;;;;;2239133;61;7184;-67
2020/12/23 06:04:31;821330.00;2.74;1418.35;6374.00;0.02;11.67;;;;;22.80;43.60;;;;;;2243450;61;7903;-67
2020/12/23 06:07:04;893368.00;2.98;1544.47;0.00;0.00;0.62;;;;;22.80;44.00;;;;;;2234287;61;8116;-67
2020/12/23 06:09:37;889828.00;2.97;1538.26;8037.00;0.03;14.55;;;;;22.80;44.10;;;;;;2237404;61;7527;-67
2020/12/23 06:12:15;123451488.00;411.50;76221528.00;6919.00;0.02;12.61;;;;;22.80;44.10;;;;;;2240895;61;8057;-67
2020/12/23 06:14:51;1128920.00;3.76;1962.22;14275.00;0.05;25.35;;;;;22.80;44.20;;;;;;2236476;61;7563;-67
2020/12/23 06:17:20;1141736.00;3.81;1985.23;14985.00;0.05;26.58;;;;;22.80;44.10;;;;;;2239664;61;7047;-67
2020/12/23 06:19:54;887259.00;2.96;1533.75;0.00;0.00;0.62;;;;;22.80;44.50;;;;;;2238520;61;6986;-67
2020/12/23 06:22:27;1120345.00;3.73;1946.85;0.00;0.00;0.62;;;;;22.80;44.50;;;;;;2238975;61;7406;-67
2020/12/23 06:24:54;1376353.00;4.59;2412.54;0.00;0.00;0.62;;;;;22.80;44.50;;;;;;2240120;61;7565;-69
2020/12/23 06:27:20;1206079.00;4.02;2101.21;0.00;0.00;0.62;;;;;22.80;44.80;;;;;;2235117;61;7102;-67
2020/12/23 06:29:48;864446.00;2.88;1493.76;7290.00;0.02;13.25;;;;;22.80;44.50;;;;;;2240678;61;7160;-67
2020/12/23 06:32:25;1469485.00;4.90;2585.83;156886.00;0.52;271.67;;;;;22.80;44.60;;;;;;2242248;61;7115;-67
2020/12/23 06:35:03;959408.00;3.20;1660.71;7348.00;0.02;13.35;;;;;22.80;44.50;;;;;;2238207;61;7394;-67
2020/12/23 06:37:33;874318.00;2.91;1511.06;0.00;0.00;0.62;;;;;22.80;44.60;;;;;;2238291;61;7338;-67
2020/12/23 06:40:10;928816.00;3.10;1606.79;0.00;0.00;0.62;;;;;22.80;44.80;;;;;;2240324;61;7029;-67
2020/12/23 06:42:46;901655.00;3.01;1559.03;0.00;0.00;0.62;;;;;22.80;44.70;;;;;;2239598;61;7407;-67
2020/12/23 06:45:13;998683.00;3.33;1730.14;0.00;0.00;0.62;;;;;22.80;44.60;;;;;;2240073;61;7461;-67
2020/12/23 06:47:41;663636.00;2.21;1144.23;10183.00;0.03;18.27;;;;;22.80;44.50;;;;;;2235552;61;7116;-67
2020/12/23 06:50:26;1274707.00;4.25;2225.89;3107.00;0.01;6.01;;;;;22.80;44.60;;;;;;2239056;61;7362;-67
2020/12/23 06:53:00;632385.00;2.11;1090.17;0.00;0.00;0.62;;;;;22.80;44.80;;;;;;2239160;61;7252;-67
2020/12/23 06:55:46;117433976.00;391.45;65600964.00;0.00;0.00;0.62;;;;;22.80;44.50;;;;;;2238598;61;7285;-67
2020/12/23 06:58:46;908833.00;3.03;1571.64;0.00;0.00;0.62;;;;;22.80;44.70;;;;;;2235338;61;7083;-67
2020/12/23 07:01:17;777248.00;2.59;1341.47;0.00;0.00;0.62;;;;;22.80;44.70;;;;;;2238205;61;5411;-67
2020/12/23 07:03:44;1053439.00;3.51;1827.35;8521.00;0.03;15.39;;;;;22.80;44.70;;;;;;2238127;61;4740;-67
2020/12/23 07:06:30;915296.00;3.05;1583.00;3726.00;0.01;7.08;;;;;22.80;44.60;;;;;;2238676;61;7393;-67
2020/12/23 07:09:01;594964.00;1.98;1025.53;0.00;0.00;0.62;;;;;22.90;44.60;;;;;;2235644;61;5485;-67
2020/12/23 07:11:33;909682.00;3.03;1573.13;16961.00;0.06;30.01;;;;;22.80;44.50;;;;;;2236931;61;5546;-67
2020/12/23 07:14:04;646167.00;2.15;1114.01;0.00;0.00;0.62;;;;;22.80;44.80;;;;;;2239012;61;2338;-67
2020/12/23 07:16:40;602091.00;2.01;1037.83;149.00;0.00;0.88;;;;;22.80;44.60;;;;;;2240545;61;5517;-67
2020/12/23 07:19:13;678361.00;2.26;1169.73;0.00;0.00;0.62;;;;;22.90;44.50;;;;;;2241749;61;7052;-67
2020/12/23 07:21:49;404119.00;1.35;696.89;0.00;0.00;0.62;;;;;22.90;44.90;;;;;;2238220;61;7327;-66
2020/12/23 07:24:15;828236.00;2.76;1430.41;0.00;0.00;0.62;;;;;23.10;45.20;;;;;;2242150;61;5761;-67
2020/12/23 07:26:46;970775.00;3.24;1680.78;0.00;0.00;0.62;;;;;23.30;45.00;;;;;;2242248;61;7094;-67
2020/12/23 07:29:14;1097424.00;3.66;1905.82;0.00;0.00;0.62;;;;;23.60;44.50;;;;;;2240145;61;7316;-67
2020/12/23 07:31:41;903985.00;3.01;1563.12;23312.00;0.08;41.01;;;;;23.90;43.90;;;;;;2240332;61;7374;-65
2020/12/23 07:34:09;583894.00;1.95;1006.42;0.00;0.00;0.62;;;;;24.10;43.20;;;;;;2242231;61;7284;-65
2020/12/23 07:36:36;591314.00;1.97;1019.22;0.00;0.00;0.62;;;;;24.40;42.50;;;;;;2234861;61;4012;-67
2020/12/23 07:39:03;1191949.00;3.97;2075.67;0.00;0.00;0.62;;;;;24.60;42.20;;;;;;2241773;61;7255;-67
2020/12/23 07:41:29;1195819.00;3.99;2082.66;0.00;0.00;0.62;;;;;24.90;41.90;;;;;;2239712;61;7247;-67
2020/12/23 07:43:59;938194.00;3.13;1623.30;0.00;0.00;0.62;;;;;25.00;41.50;;;;;;2236027;61;5710;-68
2020/12/23 07:46:25;1596685.00;5.32;2826.41;84942.00;0.28;147.57;;;;;25.20;41.20;;;;;;2240555;61;7000;-67
2020/12/23 07:48:51;1086566.00;3.62;1886.42;0.00;0.00;0.62;;;;;25.40;40.70;;;;;;2239410;61;6944;-67
2020/12/23 07:51:18;1247504.00;4.16;2176.35;0.00;0.00;0.62;;;;;25.50;40.50;;;;;;2239359;61;6611;-67
2020/12/23 07:53:44;1358367.00;4.53;2379.33;47071.00;0.16;82.12;;;;;25.60;40.20;;;;;;2285801;56;2769;-75
2020/12/23 07:58:53;2978652.00;9.93;5865.69;58986.00;0.20;102.72;;;;;25.80;39.90;;;;;;2272138;56;7147;-75
2020/12/23 08:01:23;1562346.00;5.21;2760.99;17293.00;0.06;30.58;;;;;25.90;39.80;;;;;;2244277;61;5550;-75
2020/12/23 08:06:25;2395812.00;7.99;4471.27;39681.00;0.13;69.34;;;;;26.00;39.30;;;;;;2226278;61;7146;-68
2020/12/23 08:08:51;1368185.00;4.56;2397.45;0.00;0.00;0.62;;;;;26.10;39.30;;;;;;2229436;61;7383;-68
2020/12/23 08:11:18;1831678.00;6.11;3284.24;0.00;0.00;0.62;;;;;26.20;39.30;;;;;;2227171;61;5677;-68
2020/12/23 08:13:47;957521.00;3.19;1657.38;0.00;0.00;0.62;;;;;26.20;39.10;;;;;;2229725;61;7344;-67
2020/12/23 08:16:18;122078064.00;406.93;73703456.00;13133.00;0.04;23.38;;;;;26.30;38.80;;;;;;2227464;61;7172;-68
2020/12/23 08:18:44;1638351.00;5.46;2906.26;5080.00;0.02;9.42;;;;;26.30;39.40;;;;;;2231226;61;4095;-67
2020/12/23 08:21:17;1229743.00;4.10;2144.09;53333.00;0.18;92.95;;;;;26.40;38.90;;;;;;2228985;61;4001;-68
2020/12/23 08:23:46;1583423.00;5.28;2801.10;28961.00;0.10;50.78;;;;;26.40;38.70;;;;;;2224515;61;4169;-68
2020/12/23 08:26:14;1945609.00;6.49;3513.23;1494.00;0.00;3.21;;;;;26.50;38.50;;;;;;2228857;61;4023;-68
2020/12/23 08:28:44;2570992.00;8.57;4870.28;48798.00;0.16;85.11;;;;;26.50;38.50;;;;;;2226974;61;7136;-67
2020/12/23 08:31:13;2284142.00;7.61;4225.02;3430.00;0.01;6.56;;;;;26.60;38.40;;;;;;2227766;61;5474;-67
2020/12/23 08:33:41;2089407.00;6.96;3809.55;21106.00;0.07;37.19;;;;;26.70;38.40;;;;;;2227171;61;3728;-67
2020/12/23 08:36:07;2398524.00;8.00;4477.32;18048.00;0.06;31.89;;;;;26.70;38.30;;;;;;2226759;61;4506;-67
2020/12/23 08:38:38;1678464.00;5.59;2983.66;17983.00;0.06;31.78;;;;;26.70;38.00;;;;;;2227792;61;5178;-67
2020/12/23 08:41:11;2075143.00;6.92;3779.78;35086.00;0.12;61.39;;;;;26.80;37.80;;;;;;2227667;61;7063;-67
2020/12/23 08:43:45;2013808.00;6.71;3652.71;7455.00;0.02;13.54;;;;;26.90;37.40;;;;;;2231098;61;5570;-67
2020/12/23 08:46:18;1592015.00;5.31;2817.49;42698.00;0.14;74.56;;;;;26.90;37.30;;;;;;2230613;61;3623;-67
2020/12/23 08:48:47;2162744.00;7.21;3964.02;313701.00;1.05;541.47;;;;;26.90;37.20;;;;;;2230883;61;4048;-67
2020/12/23 08:51:18;2213051.00;7.38;4071.36;24698.00;0.08;43.40;;;;;26.90;37.20;;;;;;2227966;61;7138;-67
2020/12/23 08:53:45;1177939.00;3.93;2050.38;0.00;0.00;0.62;;;;;26.90;37.10;;;;;;2226587;61;5670;-67
2020/12/23 08:56:20;2000015.00;6.67;3624.35;41567.00;0.14;72.60;;;;;26.90;37.00;;;;;;2225624;61;5651;-67
2020/12/23 08:58:51;1606327.00;5.35;2844.84;64956.00;0.22;113.04;;;;;26.90;37.00;;;;;;2227575;61;5228;-67
2020/12/23 09:01:25;2591287.00;8.64;4917.56;45380.00;0.15;79.20;;;;;26.90;37.00;;;;;;2227013;61;7390;-67
2020/12/23 09:04:05;1619669.00;5.40;2870.39;8836.00;0.03;15.93;;;;;26.70;37.30;;;;;;2224978;61;4291;-67
2020/12/23 09:06:33;2775369.00;9.25;5356.98;46074.00;0.15;80.40;;;;;26.60;37.80;;;;;;2227523;61;5490;-67
2020/12/23 09:09:06;2519689.00;8.40;4751.75;18797.00;0.06;33.19;;;;;26.60;38.40;;;;;;2224755;61;5567;-68
2020/12/23 09:11:46;2816397.00;9.39;5457.61;19830.00;0.07;34.98;;;;;26.60;39.00;;;;;;2226261;61;7357;-68
2020/12/23 09:14:13;2519963.00;8.40;4752.38;64433.00;0.21;112.14;;;;;26.50;39.10;;;;;;2225989;61;4007;-67
2020/12/23 09:16:54;3187748.00;10.63;6416.72;302044.00;1.01;521.43;;;;;26.60;39.20;;;;;;2229022;61;5594;-67
2020/12/23 09:19:47;133595528.00;445.32;96619464.00;46659.00;0.16;81.41;;;;;26.60;39.40;;;;;;2230254;61;5610;-67
2020/12/23 09:22:24;3349153.00;11.16;6862.72;34528.00;0.12;60.42;;;;;26.60;39.60;;;;;;2224217;62;7910;-68
2020/12/23 09:24:51;2552263.00;8.51;4826.84;122894.00;0.41;213.07;;;;;26.60;39.60;;;;;;2226713;61;3938;-68
2020/12/23 09:27:23;2423989.00;8.08;4534.37;48382.00;0.16;84.39;;;;;26.70;39.60;;;;;;2227794;61;7062;-67
2020/12/23 09:29:53;3392986.00;11.31;6987.10;56763.00;0.19;98.88;;;;;26.70;39.60;;;;;;2223826;62;7030;-67
2020/12/23 09:32:20;123091664.00;410.31;75556352.00;9182.00;0.03;16.53;;;;;26.70;39.60;;;;;;2228108;61;3647;-67
2020/12/23 09:35:16;2957256.00;9.86;5810.93;90560.00;0.30;157.27;;;;;26.70;39.60;;;;;;2227191;61;3929;-67
2020/12/23 09:37:43;2845761.00;9.49;5530.25;44480.00;0.15;77.64;;;;;26.70;39.30;;;;;;2227335;61;5209;-67
2020/12/23 09:40:11;3155729.00;10.52;6330.42;27239.00;0.09;47.80;;;;;26.80;39.40;;;;;;2226311;61;2385;-68
2020/12/23 09:45:42;2955540.00;9.85;5806.55;86890.00;0.29;150.94;;;;;26.90;39.00;;;;;;2272685;60;4139;-65
2020/12/23 09:48:11;2339999.00;7.80;4347.43;31849.00;0.11;55.78;;;;;26.90;38.90;;;;;;2255875;61;5320;-67